Time;durP1;ratioP1;P1;durP2;ratioP2;P2;SDS_P1;SDS_P2;PMS_P1;PMS_P2;Temp;Humidity;BMP_temperature;BMP_pressure;BME280_temperature;BME280_humidity;BME280_pressure;Samples;Min_cycle;Max_cycle;Signal;HPM_P1;HPM_P2
2022/07/18 00:02:19;;;;;;;10.60;5.97;;;;;;;30.79;30.56;102498.28;5093175;28;20384;-77
2022/07/18 00:04:45;;;;;;;12.27;6.22;;;;;;;30.43;31.36;102484.50;5091858;28;20528;-77
2022/07/18 00:07:10;;;;;;;12.10;5.63;;;;;;;30.53;30.80;102492.84;5090908;28;20020;-77
2022/07/18 00:09:37;;;;;;;8.27;6.05;;;;;;;30.38;31.52;102489.34;5091675;28;20028;-77
2022/07/18 00:12:04;;;;;;;12.18;6.10;;;;;;;30.35;31.86;102491.38;5091543;28;20068;-77
2022/07/18 00:14:29;;;;;;;13.68;6.80;;;;;;;30.89;30.67;102493.09;5090401;28;20472;-77
2022/07/18 00:16:54;;;;;;;16.30;6.63;;;;;;;30.52;31.65;102496.50;5091696;28;20024;-77
2022/07/18 00:19:20;;;;;;;12.27;6.88;;;;;;;30.58;31.57;102498.81;5091300;28;20092;-77
2022/07/18 00:21:45;;;;;;;14.18;6.85;;;;;;;30.45;32.00;102495.22;5090370;28;20066;-76
2022/07/18 00:24:11;;;;;;;10.88;6.50;;;;;;;30.39;31.54;102487.50;5091261;28;20095;-77
2022/07/18 00:26:37;;;;;;;10.23;6.63;;;;;;;30.03;32.80;102486.34;5090754;28;20055;-77
2022/07/18 00:29:03;;;;;;;11.02;6.20;;;;;;;29.89;32.71;102490.81;5090640;28;20497;-77
2022/07/18 00:31:28;;;;;;;10.18;6.10;;;;;;;30.01;32.82;102480.22;5092675;28;20031;-77
2022/07/18 00:33:53;;;;;;;14.25;6.97;;;;;;;30.01;32.77;102472.97;5091666;28;20024;-77
2022/07/18 00:36:19;;;;;;;11.10;5.90;;;;;;;29.91;32.23;102470.03;5091276;28;20115;-77
2022/07/18 00:38:44;;;;;;;9.75;6.20;;;;;;;30.10;32.06;102469.66;5090752;28;20392;-77
2022/07/18 00:41:14;;;;;;;10.18;6.53;;;;;;;30.07;32.57;102467.16;5090227;28;20020;-77
2022/07/18 00:43:39;;;;;;;8.82;5.55;;;;;;;30.16;32.26;102470.19;5090955;28;20028;-77
2022/07/18 00:46:05;;;;;;;11.70;6.53;;;;;;;30.12;32.33;102474.94;5074577;28;20128;-77
2022/07/18 00:48:30;;;;;;;9.77;6.53;;;;;;;30.20;32.06;102472.59;5053306;28;20060;-77
2022/07/18 00:50:56;;;;;;;12.55;6.45;;;;;;;30.00;32.77;102470.38;5071784;28;20024;-77
2022/07/18 00:53:23;;;;;;;12.45;6.80;;;;;;;29.84;33.63;102468.69;5053937;28;20028;-77
2022/07/18 00:55:49;;;;;;;12.27;6.35;;;;;;;29.91;32.82;102472.75;5071157;28;20020;-77
2022/07/18 00:58:14;;;;;;;10.30;6.45;;;;;;;29.81;33.32;102470.72;5053882;28;20040;-77
2022/07/18 01:03:25;;;;;;;9.52;5.55;;;;;;;29.61;33.84;102465.69;5074292;28;20043;-77
2022/07/18 01:05:50;;;;;;;11.13;6.35;;;;;;;29.40;34.37;102477.84;5057632;28;20033;-77
2022/07/18 01:08:15;;;;;;;8.98;6.00;;;;;;;29.52;34.18;102462.72;5057877;28;20472;-77
2022/07/18 01:10:42;;;;;;;10.05;6.00;;;;;;;29.86;33.36;102466.78;5074978;28;20020;-77
2022/07/18 01:13:07;;;;;;;12.70;6.05;;;;;;;29.33;34.62;102471.13;5057911;28;20070;-77
2022/07/18 01:15:33;;;;;;;11.98;6.40;;;;;;;29.36;34.25;102477.19;5057791;28;20476;-77
2022/07/18 01:17:58;;;;;;;11.35;6.70;;;;;;;29.63;33.90;102460.19;5056686;28;20024;-76
2022/07/18 01:20:28;;;;;;;12.57;6.18;;;;;;;29.15;34.47;102457.00;5057494;28;20135;-77
2022/07/18 01:22:53;;;;;;;8.88;5.97;;;;;;;29.30;33.58;102453.34;5075476;28;20500;-77
2022/07/18 01:25:19;;;;;;;11.13;6.15;;;;;;;29.02;34.44;102460.47;5056828;28;20029;-77
2022/07/18 01:27:45;;;;;;;10.43;6.68;;;;;;;29.11;33.44;102459.88;5075331;28;20024;-77
2022/07/18 01:30:10;;;;;;;12.43;6.40;;;;;;;28.99;34.02;102460.66;5056677;28;20016;-77
2022/07/18 01:32:36;;;;;;;10.93;6.55;;;;;;;29.31;33.08;102454.22;5057296;28;20494;-77
2022/07/18 01:35:01;;;;;;;10.38;6.63;;;;;;;29.05;33.73;102456.72;5057300;28;20379;-77
2022/07/18 01:37:26;;;;;;;10.75;6.35;;;;;;;28.84;33.91;102459.81;5056634;28;20491;-77
2022/07/18 01:39:52;;;;;;;9.25;6.25;;;;;;;28.93;33.86;102453.84;5057031;28;20044;-76
2022/07/18 01:42:17;;;;;;;14.07;7.13;;;;;;;29.02;33.63;102449.69;5075287;28;20547;-77
2022/07/18 01:44:43;;;;;;;10.18;6.60;;;;;;;29.10;34.03;102454.59;5064722;28;20055;-77
2022/07/18 01:47:11;;;;;;;10.30;6.70;;;;;;;29.22;33.16;102448.44;5095150;28;20109;-77
2022/07/18 01:49:37;;;;;;;13.15;6.38;;;;;;;29.06;33.72;102447.69;5094072;28;20031;-77
2022/07/18 01:52:03;;;;;;;9.93;6.18;;;;;;;29.22;33.51;102442.16;5093331;28;20020;-77
2022/07/18 01:54:31;;;;;;;13.38;6.97;;;;;;;29.50;32.88;102435.91;5094084;28;20016;-76
2022/07/18 01:56:57;;;;;;;15.80;7.53;;;;;;;29.26;33.36;102432.97;5094869;28;20016;-77
2022/07/18 01:59:23;;;;;;;12.45;6.57;;;;;;;28.97;33.77;102440.19;5094750;28;20055;-77
2022/07/18 02:01:49;;;;;;;10.73;6.68;;;;;;;28.88;34.03;102442.50;5093703;28;20044;-77
2022/07/18 02:04:15;;;;;;;10.82;6.10;;;;;;;29.01;34.05;102439.88;5093573;28;20031;-77
2022/07/18 02:06:40;;;;;;;7.95;5.72;;;;;;;29.34;33.09;102429.78;5093149;28;20086;-77
2022/07/18 02:09:07;;;;;;;10.65;5.93;;;;;;;29.36;32.92;102433.22;5095010;28;20024;-77
2022/07/18 02:11:34;;;;;;;12.68;5.88;;;;;;;29.26;33.10;102433.84;5093111;28;20028;-77
2022/07/18 02:13:59;;;;;;;11.63;6.05;;;;;;;29.04;33.81;102434.31;5092556;28;20134;-77
2022/07/18 02:16:24;;;;;;;11.32;6.38;;;;;;;28.93;33.95;102429.63;5093346;28;20028;-77
2022/07/18 02:18:50;;;;;;;11.13;5.88;;;;;;;28.58;34.59;102438.03;5094609;28;20030;-77
2022/07/18 02:21:16;;;;;;;8.82;5.40;;;;;;;28.55;35.01;102422.09;5092456;28;20062;-77
2022/07/18 02:23:42;;;;;;;8.95;6.45;;;;;;;28.58;35.08;102421.88;5093331;28;20049;-77
2022/07/18 02:26:08;;;;;;;12.75;6.38;;;;;;;28.74;35.05;102415.59;5094515;28;20034;-77
2022/07/18 02:28:34;;;;;;;8.50;5.88;;;;;;;28.73;34.42;102409.34;5092811;28;20020;-76
2022/07/18 02:30:59;;;;;;;8.38;5.43;;;;;;;28.72;34.71;102418.38;5093135;28;20030;-77
2022/07/18 02:33:25;;;;;;;10.05;5.60;;;;;;;28.58;34.48;102410.28;5092549;28;20365;-78
2022/07/18 02:35:51;;;;;;;10.25;6.28;;;;;;;28.57;34.69;102414.78;5092914;28;20567;-76
2022/07/18 02:38:16;;;;;;;10.45;6.40;;;;;;;28.73;34.17;102414.72;5093268;28;20483;-77
2022/07/18 02:40:42;;;;;;;14.70;6.72;;;;;;;28.36;34.84;102414.28;5092565;28;20506;-77
2022/07/18 02:43:08;;;;;;;11.20;5.97;;;;;;;28.24;35.20;102410.50;5092828;28;20032;-77
2022/07/18 02:45:33;;;;;;;14.95;6.15;;;;;;;28.70;34.67;102397.91;5080762;28;20045;-77
2022/07/18 02:47:59;;;;;;;8.27;5.93;;;;;;;28.52;34.59;102400.78;5055116;28;20414;-77
2022/07/18 02:50:24;;;;;;;17.65;7.20;;;;;;;28.89;33.80;102398.50;5055818;28;20020;-78
2022/07/18 02:52:50;;;;;;;12.90;5.72;;;;;;;28.71;34.30;102402.34;5073830;28;20028;-77
2022/07/18 02:55:16;;;;;;;12.82;6.05;;;;;;;28.71;34.01;102399.66;5055077;28;20384;-77
2022/07/18 02:57:42;;;;;;;12.07;6.07;;;;;;;28.46;34.69;102390.38;5055580;28;20104;-77
2022/07/18 03:00:10;;;;;;;7.80;5.72;;;;;;;28.13;35.12;102399.53;5055654;28;20544;-77
2022/07/18 03:02:36;;;;;;;9.73;5.82;;;;;;;28.40;34.39;102397.00;5055048;28;20021;-77
2022/07/18 03:05:02;;;;;;;11.30;6.00;;;;;;;28.39;34.49;102397.97;5055465;28;20028;-77
2022/07/18 03:07:28;;;;;;;11.40;6.07;;;;;;;28.41;34.28;102392.47;5055441;28;20020;-77
2022/07/18 03:09:53;;;;;;;9.43;5.82;;;;;;;28.29;34.71;102387.84;5054743;28;20029;-77
2022/07/18 03:12:19;;;;;;;8.93;5.75;;;;;;;28.15;34.75;102392.28;5055052;28;20028;-77
2022/07/18 03:14:45;;;;;;;8.73;5.32;;;;;;;28.03;34.48;102393.00;5055599;28;20020;-77
2022/07/18 03:17:10;;;;;;;8.63;5.25;;;;;;;28.35;34.15;102376.75;5054693;28;20074;-77
2022/07/18 03:19:36;;;;;;;9.13;5.53;;;;;;;28.23;34.45;102391.78;5055503;28;20365;-77
2022/07/18 03:22:02;;;;;;;9.30;5.40;;;;;;;28.20;34.45;102383.91;5055037;28;20021;-76
2022/07/18 03:24:28;;;;;;;7.47;5.03;;;;;;;28.18;34.75;102386.69;5071674;28;20021;-77
2022/07/18 03:26:54;;;;;;;10.35;6.03;;;;;;;28.48;34.03;102377.72;5054982;28;20023;-77
2022/07/18 03:29:19;;;;;;;9.00;4.80;;;;;;;28.35;34.09;102371.38;5055127;28;20085;-78
2022/07/18 03:31:44;;;;;;;9.05;5.30;;;;;;;28.08;34.76;102369.38;5054369;28;20020;-77
2022/07/18 03:34:10;;;;;;;10.65;4.95;;;;;;;28.40;33.99;102366.56;5054809;28;20062;-77
2022/07/18 03:36:36;;;;;;;13.23;5.72;;;;;;;28.29;34.11;102367.25;5054560;28;20077;-77
2022/07/18 03:39:02;;;;;;;9.13;5.13;;;;;;;28.47;33.87;102359.84;5054629;28;20032;-77
2022/07/18 03:41:28;;;;;;;8.23;4.93;;;;;;;28.29;34.25;102360.97;5055019;28;20020;-77
2022/07/18 03:43:53;;;;;;;8.95;5.55;;;;;;;28.40;33.80;102355.81;5053978;28;20073;-77
2022/07/18 03:46:19;;;;;;;11.23;5.22;;;;;;;28.05;34.62;102364.22;5072456;28;20568;-77
2022/07/18 03:48:44;;;;;;;9.02;4.93;;;;;;;28.08;34.18;102353.25;5072517;28;20035;-77
2022/07/18 03:51:09;;;;;;;12.02;6.20;;;;;;;27.98;34.95;102357.44;5054064;28;20034;-77
2022/07/18 03:53:35;;;;;;;9.45;4.97;;;;;;;28.05;34.63;102356.16;5054699;28;20028;-78
2022/07/18 03:56:00;;;;;;;8.05;4.95;;;;;;;28.09;34.74;102355.00;5072740;28;20020;-77
2022/07/18 03:58:26;;;;;;;10.38;5.70;;;;;;;28.04;34.68;102362.47;5072255;28;20028;-77
2022/07/18 04:00:51;;;;;;;8.50;4.95;;;;;;;27.98;34.49;102365.50;5054611;28;20020;-77
2022/07/18 04:03:17;;;;;;;9.90;5.80;;;;;;;27.59;35.66;102357.91;5054166;28;20035;-77
2022/07/18 04:05:44;;;;;;;11.70;6.10;;;;;;;27.69;35.47;102357.38;5053859;28;20472;-77
2022/07/18 04:08:09;;;;;;;11.45;5.57;;;;;;;27.91;34.71;102357.81;5054634;28;20082;-77
2022/07/18 04:10:35;;;;;;;11.05;5.85;;;;;;;28.05;34.40;102354.31;5054467;28;20024;-77
2022/07/18 04:13:00;;;;;;;10.98;5.28;;;;;;;27.49;35.35;102353.16;5053844;28;20480;-78
2022/07/18 04:15:26;;;;;;;10.02;4.95;;;;;;;27.15;35.86;102352.34;5054172;28;20021;-77
2022/07/18 04:17:52;;;;;;;8.75;5.97;;;;;;;26.92;36.35;102346.47;5054516;28;20024;-78
2022/07/18 04:20:20;;;;;;;6.55;4.97;;;;;;;27.61;35.26;102354.25;5053644;28;20073;-78
2022/07/18 04:22:50;;;;;;;10.55;5.30;;;;;;;27.90;34.54;102344.47;5054308;28;20534;-77
2022/07/18 04:25:16;;;;;;;9.25;5.15;;;;;;;27.47;35.34;102347.03;5054179;28;20028;-78
2022/07/18 04:27:41;;;;;;;10.80;4.95;;;;;;;27.63;35.24;102346.97;5071541;28;20065;-77
2022/07/18 04:30:07;;;;;;;7.65;4.57;;;;;;;27.52;35.48;102350.28;5054091;28;20017;-77
2022/07/18 04:32:33;;;;;;;8.55;5.10;;;;;;;27.48;35.36;102348.72;5072000;28;20485;-78
2022/07/18 04:34:58;;;;;;;10.73;5.05;;;;;;;27.89;34.70;102343.63;5053612;28;20035;-77
2022/07/18 04:37:24;;;;;;;8.98;5.20;;;;;;;27.90;34.62;102345.34;5053863;28;20558;-77
2022/07/18 04:39:49;;;;;;;6.25;4.72;;;;;;;27.99;34.64;102343.06;5054156;28;20573;-77
2022/07/18 04:42:14;;;;;;;10.75;5.13;;;;;;;27.84;34.76;102348.38;5071209;28;20532;-78
2022/07/18 04:44:40;;;;;;;8.75;5.13;;;;;;;27.41;35.67;102342.88;5061456;28;20058;-77
2022/07/18 04:47:05;;;;;;;8.95;5.07;;;;;;;28.21;34.46;102335.44;5090233;28;20028;-77
2022/07/18 04:49:31;;;;;;;10.65;5.25;;;;;;;28.42;34.02;102340.44;5091157;28;20020;-77
2022/07/18 04:51:56;;;;;;;11.55;5.88;;;;;;;28.42;34.31;102343.13;5091131;28;20384;-78
2022/07/18 04:54:21;;;;;;;9.45;4.97;;;;;;;29.01;32.95;102352.91;5091423;28;20047;-78
2022/07/18 04:56:47;;;;;;;10.32;4.93;;;;;;;28.75;33.46;102344.69;5090964;28;20012;-78
2022/07/18 04:59:12;;;;;;;8.73;5.57;;;;;;;28.84;33.46;102351.28;5092326;28;20391;-78
2022/07/18 05:01:38;;;;;;;9.02;4.95;;;;;;;29.19;32.21;102362.47;5090316;28;20503;-78
2022/07/18 05:04:04;;;;;;;7.35;4.88;;;;;;;29.14;32.51;102359.25;5090748;28;20027;-77
2022/07/18 05:06:29;;;;;;;12.60;5.45;;;;;;;29.43;31.77;102359.19;5092138;28;20038;-77
2022/07/18 05:08:55;;;;;;;6.80;4.90;;;;;;;29.33;31.95;102347.28;5090243;28;20122;-78
2022/07/18 05:11:20;;;;;;;10.30;6.20;;;;;;;29.08;32.25;102355.09;5090892;28;20360;-78
2022/07/18 05:13:46;;;;;;;8.90;5.40;;;;;;;29.04;31.94;102358.09;5090588;28;20051;-78
2022/07/18 05:16:11;;;;;;;9.60;5.70;;;;;;;28.44;33.30;102349.28;5089667;28;20436;-77
2022/07/18 05:18:36;;;;;;;10.30;5.82;;;;;;;28.72;32.86;102347.59;5090498;28;20047;-78
2022/07/18 05:21:02;;;;;;;7.88;5.15;;;;;;;29.15;32.19;102352.88;5091944;28;20027;-77
2022/07/18 05:23:27;;;;;;;10.63;5.63;;;;;;;28.63;32.63;102359.75;5089865;28;20024;-77
2022/07/18 05:25:53;;;;;;;10.77;5.47;;;;;;;28.70;32.98;102349.50;5090549;28;20537;-78
2022/07/18 05:28:18;;;;;;;8.63;5.43;;;;;;;29.20;32.16;102347.19;5090390;28;20020;-78
2022/07/18 05:30:44;;;;;;;9.45;5.28;;;;;;;29.26;32.11;102353.09;5089935;28;20053;-78
2022/07/18 05:33:09;;;;;;;8.02;5.03;;;;;;;29.54;31.29;102350.34;5090616;28;20020;-77
2022/07/18 05:35:35;;;;;;;8.13;5.30;;;;;;;29.46;31.68;102348.19;5090260;28;20022;-78
2022/07/18 05:38:00;;;;;;;11.02;5.28;;;;;;;29.19;31.93;102354.41;5089718;28;20391;-78
2022/07/18 05:40:26;;;;;;;9.55;5.45;;;;;;;29.39;31.85;102341.50;5090510;28;20028;-78
2022/07/18 05:42:51;;;;;;;10.15;5.60;;;;;;;28.63;33.13;102349.00;5090408;28;20020;-78
2022/07/18 05:45:17;;;;;;;10.65;5.65;;;;;;;29.35;32.02;102356.13;5080013;28;20416;-78
2022/07/18 05:47:42;;;;;;;9.32;5.90;;;;;;;29.51;31.77;102348.75;5053945;28;20021;-77
2022/07/18 05:50:08;;;;;;;11.55;5.57;;;;;;;30.03;31.16;102348.88;5075343;28;20024;-78
2022/07/18 05:52:34;;;;;;;10.95;6.30;;;;;;;29.92;31.13;102342.41;5056593;28;20030;-78
2022/07/18 05:55:00;;;;;;;12.70;6.15;;;;;;;29.76;31.74;102339.03;5075070;28;20103;-77
2022/07/18 05:57:26;;;;;;;11.82;5.65;;;;;;;29.44;32.52;102333.97;5074424;28;20074;-78
2022/07/18 05:59:51;;;;;;;10.90;5.80;;;;;;;29.51;32.30;102327.22;5056978;28;20029;-78
2022/07/18 06:02:17;;;;;;;10.65;5.78;;;;;;;29.47;32.19;102327.50;5057157;28;20024;-78
2022/07/18 06:04:42;;;;;;;14.38;6.55;;;;;;;29.61;32.31;102319.38;5056606;28;20027;-78
2022/07/18 06:07:07;;;;;;;11.05;6.25;;;;;;;29.55;32.42;102320.66;5056920;28;20477;-78
2022/07/18 06:09:33;;;;;;;9.57;6.20;;;;;;;29.76;32.02;102323.69;5056950;28;20032;-78
2022/07/18 06:12:00;;;;;;;11.15;6.00;;;;;;;29.42;32.80;102319.75;5056323;28;20448;-78
2022/07/18 06:14:29;;;;;;;12.45;6.15;;;;;;;29.05;32.97;102330.22;5056496;28;20044;-77
2022/07/18 06:16:55;;;;;;;11.38;6.28;;;;;;;28.09;33.84;102317.38;5057148;28;20030;-78
2022/07/18 06:19:21;;;;;;;7.93;5.07;;;;;;;29.78;31.19;102321.75;5056014;28;20100;-78
2022/07/18 06:21:47;;;;;;;10.45;5.35;;;;;;;29.83;31.45;102313.38;5074905;28;20557;-77
2022/07/18 06:24:12;;;;;;;13.48;5.93;;;;;;;29.78;31.49;102320.91;5056470;28;20028;-77
2022/07/18 06:26:38;;;;;;;9.23;6.40;;;;;;;30.47;31.13;102317.94;5056000;28;20078;-78
2022/07/18 06:29:03;;;;;;;11.10;6.03;;;;;;;30.36;31.13;102325.91;5056355;28;20027;-78
2022/07/18 06:31:29;;;;;;;9.88;5.45;;;;;;;30.44;31.12;102318.16;5056377;28;20024;-78
2022/07/18 06:33:54;;;;;;;10.32;5.95;;;;;;;31.10;30.27;102316.06;5055782;28;20173;-78
2022/07/18 06:36:23;;;;;;;10.45;5.32;;;;;;;32.20;28.85;102306.88;5074317;28;20506;-78
2022/07/18 06:38:49;;;;;;;13.95;5.60;;;;;;;35.54;24.94;102311.63;5074399;28;20020;-78
2022/07/18 06:41:14;;;;;;;13.63;5.80;;;;;;;36.21;23.43;102322.53;5055488;28;20028;-78
2022/07/18 06:43:41;;;;;;;10.73;5.07;;;;;;;38.25;22.16;102321.13;5056022;28;20021;-79
2022/07/18 06:46:07;;;;;;;7.50;4.65;;;;;;;38.87;20.29;102320.00;5087636;28;20036;-79
2022/07/18 06:48:34;;;;;;;9.55;4.75;;;;;;;39.85;18.93;102326.53;5092375;28;20028;-78
2022/07/18 06:51:01;;;;;;;9.63;5.15;;;;;;;40.54;18.14;102323.25;5093104;28;20056;-79
2022/07/18 06:53:27;;;;;;;7.90;4.30;;;;;;;40.53;18.97;102327.03;5094151;28;20070;-79
2022/07/18 06:55:52;;;;;;;10.30;4.60;;;;;;;40.35;18.64;102324.50;5092212;28;20023;-79
2022/07/18 06:58:17;;;;;;;6.18;4.40;;;;;;;41.84;17.43;102327.13;5092974;28;20451;-79
2022/07/18 07:00:43;;;;;;;7.82;4.30;;;;;;;40.59;18.02;102325.44;5090881;28;20119;-79
2022/07/18 07:03:08;;;;;;;6.68;4.40;;;;;;;41.35;17.01;102326.47;5092925;28;20020;-78
2022/07/18 07:05:34;;;;;;;9.55;4.93;;;;;;;40.47;17.00;102319.50;5092431;28;20533;-78
2022/07/18 07:07:59;;;;;;;7.47;4.70;;;;;;;40.36;17.67;102318.00;5092102;28;20040;-80
2022/07/18 07:10:24;;;;;;;9.77;4.25;;;;;;;39.95;19.00;102316.25;5092963;28;20020;-79
2022/07/18 07:12:51;;;;;;;7.90;4.25;;;;;;;39.97;18.37;102311.47;5092617;28;20058;-78
2022/07/18 07:15:21;;;;;;;8.32;3.83;;;;;;;40.66;18.09;102313.59;5092055;28;20024;-78
2022/07/18 07:17:47;;;;;;;8.20;3.90;;;;;;;40.15;18.58;102314.00;5092510;28;20038;-79
2022/07/18 07:20:13;;;;;;;8.50;4.05;;;;;;;40.67;20.15;102318.06;5092399;28;20110;-79
2022/07/18 07:22:45;;;;;;;6.35;3.78;;;;;;;40.98;17.19;102313.59;5091786;28;20508;-78
2022/07/18 07:25:12;;;;;;;13.05;4.97;;;;;;;39.49;18.84;102310.50;5092219;28;20024;-77
2022/07/18 07:27:37;;;;;;;9.15;3.88;;;;;;;41.15;17.97;102306.09;5092118;28;20028;-78
2022/07/18 07:30:04;;;;;;;11.55;4.15;;;;;;;42.77;16.85;102304.66;5091500;28;20024;-78
2022/07/18 07:32:34;;;;;;;6.45;4.43;;;;;;;43.53;16.52;102306.91;5092518;28;20093;-78
2022/07/18 07:34:59;;;;;;;7.18;3.88;;;;;;;43.77;16.59;102299.22;5092169;28;20512;-78
2022/07/18 07:37:25;;;;;;;5.85;3.90;;;;;;;43.90;15.64;102304.81;5091091;28;20023;-77
2022/07/18 07:39:50;;;;;;;8.30;3.58;;;;;;;43.45;16.08;102301.50;5091962;28;20364;-78
2022/07/18 07:42:15;;;;;;;8.25;4.43;;;;;;;45.19;14.71;102302.25;5091911;28;20024;-78
2022/07/18 07:44:41;;;;;;;7.63;3.80;;;;;;;43.46;15.92;102306.84;5090950;28;20582;-77
2022/07/18 07:47:06;;;;;;;8.60;3.42;;;;;;;43.98;15.90;102296.41;5092703;28;20035;-77
2022/07/18 07:49:33;;;;;;;7.53;3.95;;;;;;;45.01;15.85;102306.50;5092960;28;20035;-77
2022/07/18 07:51:59;;;;;;;12.35;3.97;;;;;;;44.08;15.03;102303.41;5090785;28;20028;-77
2022/07/18 07:54:25;;;;;;;5.68;3.67;;;;;;;43.67;15.98;102305.06;5091525;28;20035;-78
2022/07/18 07:56:50;;;;;;;7.57;3.00;;;;;;;44.21;14.77;102306.22;5090894;28;20020;-77
2022/07/18 07:59:16;;;;;;;10.95;2.92;;;;;;;44.08;15.90;102308.91;5091898;28;20451;-77
2022/07/18 08:01:41;;;;;;;6.03;3.00;;;;;;;45.33;14.32;102303.97;5091322;28;20059;-78
2022/07/18 08:04:07;;;;;;;6.22;2.75;;;;;;;46.13;15.11;102310.41;5090935;28;20471;-77
2022/07/18 08:06:32;;;;;;;9.02;2.72;;;;;;;45.98;14.09;102311.53;5091618;28;20134;-78
2022/07/18 08:08:58;;;;;;;6.90;2.80;;;;;;;48.12;12.89;102308.19;5091375;28;20020;-78
2022/07/18 08:11:23;;;;;;;8.00;3.42;;;;;;;48.60;11.87;102310.16;5090537;28;20020;-79
2022/07/18 08:13:48;;;;;;;5.72;2.60;;;;;;;47.73;12.26;102305.66;5091305;28;20570;-78
2022/07/18 08:16:14;;;;;;;3.83;2.40;;;;;;;47.54;12.33;102308.44;5091127;28;20093;-78
2022/07/18 08:18:39;;;;;;;4.07;2.60;;;;;;;46.21;14.23;102304.66;5091988;28;20043;-78
2022/07/18 08:21:04;;;;;;;8.15;2.70;;;;;;;47.34;12.72;102308.59;5091379;28;20024;-78
2022/07/18 08:23:30;;;;;;;3.67;2.25;;;;;;;47.42;12.39;102299.19;5092434;28;20418;-78
2022/07/18 08:25:55;;;;;;;7.63;3.08;;;;;;;46.09;14.14;102296.19;5090490;28;20027;-78
2022/07/18 08:28:20;;;;;;;4.97;2.30;;;;;;;47.24;13.04;102297.22;5090923;28;20020;-77
2022/07/18 08:30:46;;;;;;;6.40;2.70;;;;;;;45.40;13.33;102293.75;5091363;28;20365;-78
2022/07/18 08:33:11;;;;;;;7.43;2.75;;;;;;;46.38;14.84;102294.78;5091611;28;20388;-79
2022/07/18 08:35:37;;;;;;;7.88;2.25;;;;;;;44.98;13.95;102303.31;5092378;28;20491;-78
2022/07/18 08:38:03;;;;;;;6.63;2.13;;;;;;;45.53;14.33;102300.34;5091006;28;20028;-79
2022/07/18 08:40:29;;;;;;;6.25;2.70;;;;;;;46.71;13.44;102304.81;5092157;28;20082;-78
2022/07/18 08:42:57;;;;;;;5.55;2.78;;;;;;;47.20;12.90;102298.75;5091250;28;20422;-79
2022/07/18 08:45:24;;;;;;;6.05;2.70;;;;;;;48.26;11.64;102292.25;5090738;28;20040;-79
2022/07/18 08:47:51;;;;;;;5.53;2.78;;;;;;;47.92;11.65;102303.78;5091314;28;20544;-79
2022/07/18 08:50:18;;;;;;;8.23;2.53;;;;;;;47.65;13.43;102287.44;5090932;28;20059;-79
2022/07/18 08:52:44;;;;;;;5.15;2.28;;;;;;;47.43;12.76;102288.97;5092103;28;20095;-78
2022/07/18 08:55:10;;;;;;;4.50;2.17;;;;;;;45.35;13.48;102293.56;5089927;28;20444;-78
2022/07/18 08:57:36;;;;;;;7.30;2.53;;;;;;;47.22;12.67;102288.28;5092191;28;20024;-78
2022/07/18 09:00:06;;;;;;;5.90;2.70;;;;;;;48.32;11.39;102296.88;5090644;28;20168;-78
2022/07/18 09:02:32;;;;;;;7.28;3.00;;;;;;;48.28;11.30;102302.03;5090591;28;20047;-78
2022/07/18 09:05:01;;;;;;;7.05;2.78;;;;;;;45.60;13.13;102303.94;5091710;28;20028;-78
2022/07/18 09:07:30;;;;;;;7.10;2.78;;;;;;;47.37;12.33;102291.53;5089756;28;20395;-78
2022/07/18 09:09:58;;;;;;;8.15;2.58;;;;;;;47.88;12.00;102297.00;5090802;28;20023;-78
2022/07/18 09:12:30;;;;;;;5.75;3.35;;;;;;;47.26;11.90;102295.06;5090804;28;20109;-79
2022/07/18 09:14:56;;;;;;;7.07;2.63;;;;;;;48.30;12.11;102305.44;5091284;28;20047;-78
2022/07/18 09:17:30;;;;;;;11.73;2.78;;;;;;;48.57;11.54;102293.97;5091845;28;20479;-79
2022/07/18 09:20:11;;;;;;;7.57;2.10;;;;;;;49.01;11.30;102291.81;5090696;28;20028;-78
2022/07/18 09:22:39;;;;;;;5.00;2.53;;;;;;;45.96;13.23;102294.34;5090135;28;20051;-78
2022/07/18 09:25:07;;;;;;;8.10;2.80;;;;;;;49.16;10.84;102296.03;5095643;28;20036;-79
2022/07/18 09:27:32;;;;;;;6.25;2.63;;;;;;;48.35;10.67;102288.97;5094470;28;20095;-78
2022/07/18 09:30:07;;;;;;;6.80;3.17;;;;;;;46.85;11.99;102288.13;5093026;28;20502;-79
2022/07/18 09:32:33;;;;;;;6.15;2.78;;;;;;;47.21;12.65;102286.56;5094428;28;20552;-78
2022/07/18 09:35:05;;;;;;;4.75;2.20;;;;;;;48.16;11.91;102287.28;5095617;28;20145;-79
2022/07/18 09:37:31;;;;;;;7.88;3.05;;;;;;;48.87;11.38;102282.84;5093359;28;20502;-79
2022/07/18 09:40:13;;;;;;;5.20;2.42;;;;;;;49.32;11.59;102278.69;5094168;28;20024;-79
2022/07/18 09:42:39;;;;;;;10.75;2.70;;;;;;;47.98;11.99;102277.91;5093244;28;20032;-79
2022/07/18 09:45:05;;;;;;;4.85;2.60;;;;;;;48.60;11.52;102276.88;5094064;28;20046;-79
2022/07/18 09:47:30;;;;;;;6.38;2.33;;;;;;;48.78;11.37;102275.09;5094222;28;20022;-79
2022/07/18 09:49:56;;;;;;;13.13;2.35;;;;;;;49.84;10.37;102274.28;5093409;28;20059;-79
2022/07/18 09:52:22;;;;;;;4.78;2.25;;;;;;;47.69;11.32;102272.06;5093948;28;20023;-79
2022/07/18 09:54:47;;;;;;;6.70;2.63;;;;;;;48.98;10.60;102272.84;5095438;28;20465;-79
2022/07/18 09:57:26;;;;;;;5.00;2.42;;;;;;;47.05;10.54;102277.78;5093084;28;20020;-79
2022/07/18 09:59:52;;;;;;;5.40;2.42;;;;;;;47.39;11.84;102261.75;5094789;28;20028;-78
2022/07/18 10:02:18;;;;;;;10.38;2.33;;;;;;;47.31;13.34;102273.09;5095233;28;20032;-79
2022/07/18 10:04:44;;;;;;;5.95;2.17;;;;;;;48.75;10.53;102279.19;5093440;28;20547;-78
2022/07/18 10:07:10;;;;;;;4.78;2.38;;;;;;;46.96;12.32;102268.03;5093546;28;20028;-78
2022/07/18 10:09:38;;;;;;;5.13;2.03;;;;;;;48.49;11.50;102270.19;5093644;28;20115;-79
2022/07/18 10:12:05;;;;;;;8.00;2.20;;;;;;;48.91;10.58;102263.81;5092833;28;20047;-78
2022/07/18 10:14:32;;;;;;;6.60;2.25;;;;;;;46.84;12.05;102272.59;5093552;28;20385;-79
2022/07/18 10:16:59;;;;;;;5.38;2.13;;;;;;;47.45;12.21;102265.50;5093254;28;20073;-79
2022/07/18 10:19:24;;;;;;;5.15;2.00;;;;;;;47.48;12.07;102264.22;5092806;28;20050;-78
2022/07/18 10:21:50;;;;;;;5.18;2.00;;;;;;;48.06;11.42;102266.53;5093418;28;20376;-79
2022/07/18 10:24:21;;;;;;;3.15;1.55;;;;;;;47.22;10.51;102264.22;5093359;28;20503;-78
2022/07/18 10:27:16;;;;;;;6.82;2.25;;;;;;;48.24;10.54;102267.56;5092601;28;20019;-78
2022/07/18 10:30:07;;;;;;;6.05;2.45;;;;;;;47.33;11.19;102264.56;5093471;28;20024;-78
2022/07/18 10:32:36;;;;;;;;;;;;;;;47.27;12.51;102263.53;5094580;28;20026;-79
2022/07/18 10:35:01;;;;;;;5.25;2.15;;;;;;;47.92;11.35;102265.00;5094273;28;20364;-79
2022/07/18 10:37:33;;;;;;;4.32;2.30;;;;;;;46.67;11.92;102259.34;5093296;28;20035;-78
2022/07/18 10:40:24;;;;;;;5.18;2.25;;;;;;;45.60;13.32;102273.59;5092939;28;20114;-79
2022/07/18 10:43:28;;;;;;;5.82;2.60;;;;;;;46.82;11.63;102260.94;5093278;28;20260;-79
2022/07/18 10:45:54;;;;;;;4.93;2.08;;;;;;;46.05;12.37;102256.25;5092352;28;20507;-78
2022/07/18 10:48:42;;;;;;;3.25;2.20;;;;;;;44.77;12.61;102260.25;5093061;28;20039;-78
2022/07/18 10:51:13;;;;;;;5.80;2.22;;;;;;;46.28;11.75;102261.28;5079817;28;20039;-79
2022/07/18 10:53:54;;;;;;;7.85;2.05;;;;;;;44.78;12.94;102250.88;5091865;28;20039;-78
2022/07/18 10:56:39;;;;;;;6.90;2.25;;;;;;;43.72;13.05;102253.88;5093101;28;20485;-78
2022/07/18 10:59:15;;;;;;;3.60;1.80;;;;;;;45.56;12.47;102247.47;5094131;28;20032;-79
2022/07/18 11:01:54;;;;;;;3.63;1.92;;;;;;;46.92;11.67;102250.22;5093526;28;20058;-78
2022/07/18 11:04:27;;;;;;;5.60;2.35;;;;;;;44.58;11.61;102254.44;5092802;28;20034;-79
2022/07/18 11:07:16;;;;;;;3.67;1.55;;;;;;;45.49;11.69;102244.72;5093053;28;20024;-79
2022/07/18 11:09:41;;;;;;;3.67;2.10;;;;;;;46.64;12.14;102248.72;5082209;28;20043;-78
2022/07/18 11:12:30;;;;;;;4.55;1.85;;;;;;;46.97;10.90;102249.53;5092604;28;20027;-78
2022/07/18 11:15:03;;;;;;;5.78;1.65;;;;;;;47.26;10.68;102250.78;5091840;28;20361;-78
2022/07/18 11:17:53;;;;;;;8.30;1.90;;;;;;;46.36;11.13;102249.97;5092302;28;20024;-78
2022/07/18 11:20:36;;;;;;;5.32;1.60;;;;;;;47.34;11.15;102235.81;5092572;28;20028;-78
2022/07/18 11:23:13;;;;;;;3.13;1.48;;;;;;;46.60;11.17;102241.94;5092796;28;20121;-78
2022/07/18 11:25:39;;;;;;;5.15;1.70;;;;;;;47.52;10.92;102243.31;5092396;28;20028;-77